Time;durP1;ratioP1;P1;durP2;ratioP2;P2;SDS_P1;SDS_P2;PMS_P1;PMS_P2;Temp;Humidity;BMP_temperature;BMP_pressure;BME280_temperature;BME280_humidity;BME280_pressure;Samples;Min_cycle;Max_cycle;Signal;HPM_P1;HPM_P2
2021/01/24 00:00:32;;;;;;;13.70;10.05;;;3.30;91.00;;;;;;2071286;28;20044;-81
2021/01/24 00:01:33;;;;;;;14.40;9.88;;;3.30;91.00;;;;;;2087611;28;20036;-82
2021/01/24 00:02:33;;;;;;;14.82;9.77;;;3.30;91.00;;;;;;2087725;28;20025;-82
2021/01/24 00:03:34;;;;;;;14.02;10.55;;;3.40;91.00;;;;;;2079194;28;20037;-82
2021/01/24 00:04:35;;;;;;;14.18;10.07;;;3.40;91.00;;;;;;2071610;28;20583;-82
2021/01/24 00:05:35;;;;;;;14.88;10.77;;;3.40;91.00;;;;;;2080462;28;20487;-82
2021/01/24 00:06:36;;;;;;;13.15;9.95;;;3.40;91.00;;;;;;2080440;28;20033;-81
2021/01/24 00:07:36;;;;;;;15.63;11.02;;;3.40;91.00;;;;;;2072205;28;20037;-82
2021/01/24 00:08:37;;;;;;;14.85;11.18;;;3.40;91.00;;;;;;2062529;28;20117;-82
2021/01/24 00:09:38;;;;;;;13.57;10.35;;;3.40;91.00;;;;;;2079733;28;20034;-82
2021/01/24 00:10:39;;;;;;;14.57;10.77;;;3.40;91.00;;;;;;2102455;28;20060;-81
2021/01/24 00:11:39;;;;;;;15.15;11.38;;;3.40;91.00;;;;;;2089698;28;20048;-81
2021/01/24 00:12:40;;;;;;;16.05;11.45;;;3.40;91.00;;;;;;2095726;28;20575;-81
2021/01/24 00:13:41;;;;;;;15.52;11.30;;;3.40;91.10;;;;;;2084685;28;20037;-81
2021/01/24 00:14:41;;;;;;;14.65;10.68;;;3.40;91.30;;;;;;2076679;28;20036;-81
2021/01/24 00:15:42;;;;;;;16.77;11.85;;;3.40;91.00;;;;;;2080052;28;20029;-82
2021/01/24 00:16:43;;;;;;;16.30;11.05;;;3.40;91.10;;;;;;2087443;28;20037;-81
2021/01/24 00:17:44;;;;;;;15.93;11.10;;;3.30;91.10;;;;;;2088324;28;20032;-82
2021/01/24 00:18:45;;;;;;;14.93;10.60;;;3.40;91.10;;;;;;2071320;28;20026;-82
2021/01/24 00:19:45;;;;;;;14.73;10.95;;;3.40;91.40;;;;;;2080102;28;20057;-82
2021/01/24 00:20:46;;;;;;;14.85;10.85;;;3.40;91.10;;;;;;2076744;28;20033;-82
2021/01/24 00:21:46;;;;;;;15.00;11.77;;;3.30;91.10;;;;;;2073054;28;20034;-82
2021/01/24 00:22:47;;;;;;;14.68;10.75;;;3.30;91.10;;;;;;2070516;28;20036;-82
2021/01/24 00:23:48;;;;;;;17.25;11.38;;;3.30;91.10;;;;;;2078789;28;20076;-82
2021/01/24 00:24:48;;;;;;;14.75;10.80;;;3.40;91.10;;;;;;2088175;28;20473;-82
2021/01/24 00:25:49;;;;;;;15.77;11.57;;;3.40;91.10;;;;;;2088669;28;20132;-82
2021/01/24 00:26:49;;;;;;;16.65;12.43;;;3.30;91.10;;;;;;2087335;28;20426;-82
2021/01/24 00:27:50;;;;;;;16.33;11.93;;;3.30;91.10;;;;;;2070366;28;20030;-82
2021/01/24 00:28:51;;;;;;;15.48;11.27;;;3.30;91.10;;;;;;2080102;28;20138;-81
2021/01/24 00:29:51;;;;;;;17.20;11.95;;;3.30;91.10;;;;;;2070073;28;20033;-81
2021/01/24 00:30:52;;;;;;;16.00;11.40;;;3.30;91.10;;;;;;2071473;28;20021;-82
2021/01/24 00:31:52;;;;;;;16.05;11.23;;;3.30;91.10;;;;;;2080651;28;20030;-82
2021/01/24 00:32:53;;;;;;;15.82;11.68;;;3.30;91.10;;;;;;2087492;28;20454;-82
2021/01/24 00:33:54;;;;;;;15.93;10.95;;;3.30;91.10;;;;;;2096196;28;20440;-82
2021/01/24 00:34:54;;;;;;;14.68;10.68;;;3.30;91.10;;;;;;2096655;28;20052;-82
2021/01/24 00:35:55;;;;;;;15.18;11.07;;;3.30;91.20;;;;;;2087039;28;20029;-82
2021/01/24 00:36:55;;;;;;;14.32;10.07;;;3.30;91.20;;;;;;2086549;28;20036;-81
2021/01/24 00:37:56;;;;;;;15.32;10.73;;;3.30;91.20;;;;;;2092842;28;20390;-82
2021/01/24 00:38:57;;;;;;;16.63;10.93;;;3.30;91.20;;;;;;2089657;28;20244;-81
2021/01/24 00:39:57;;;;;;;14.18;10.60;;;3.30;91.20;;;;;;2088533;28;20063;-82
2021/01/24 00:41:01;;;;;;;15.73;11.48;;;3.30;91.20;;;;;;2079617;28;20415;-81
2021/01/24 00:42:02;;;;;;;15.23;10.88;;;3.20;91.20;;;;;;2091546;28;20037;-81
2021/01/24 00:43:03;;;;;;;15.05;10.80;;;3.20;91.20;;;;;;2100780;28;20611;-81
2021/01/24 00:44:03;;;;;;;14.70;10.45;;;3.20;91.20;;;;;;2079728;28;20080;-81
2021/01/24 00:45:08;;;;;;;13.70;9.98;;;3.20;91.20;;;;;;2079922;28;20021;-81
2021/01/24 00:46:09;;;;;;;14.02;10.23;;;3.20;91.20;;;;;;2091463;28;20045;-80
2021/01/24 00:47:10;;;;;;;13.70;9.82;;;3.20;91.20;;;;;;2076079;28;20430;-81
2021/01/24 00:48:11;;;;;;;14.50;10.07;;;3.20;91.20;;;;;;2087104;28;20095;-82
2021/01/24 00:49:11;;;;;;;13.07;9.18;;;3.20;91.20;;;;;;2098793;28;20115;-81
2021/01/24 00:50:12;;;;;;;11.98;8.60;;;3.20;91.20;;;;;;2088901;28;20441;-81
2021/01/24 00:51:13;;;;;;;13.18;9.05;;;3.20;91.20;;;;;;2084035;28;20029;-81
2021/01/24 00:52:14;;;;;;;13.88;9.50;;;3.20;91.20;;;;;;2085639;28;20123;-81
2021/01/24 00:53:14;;;;;;;14.35;9.68;;;3.20;91.20;;;;;;2078861;28;20057;-81
2021/01/24 00:54:15;;;;;;;12.85;9.10;;;3.20;91.30;;;;;;2085622;28;20328;-81
2021/01/24 00:55:16;;;;;;;13.05;9.05;;;3.20;91.20;;;;;;2088213;28;20376;-82
2021/01/24 00:56:16;;;;;;;13.48;9.00;;;3.20;91.30;;;;;;2088226;28;20025;-81
2021/01/24 00:57:17;;;;;;;15.02;9.90;;;3.20;91.20;;;;;;2088571;28;20360;-80
2021/01/24 00:58:18;;;;;;;13.23;9.02;;;3.20;91.20;;;;;;2093999;28;20127;-81
2021/01/24 00:59:18;;;;;;;13.80;9.95;;;3.20;91.20;;;;;;2095419;28;20040;-81
2021/01/24 01:00:20;;;;;;;14.68;10.30;;;3.20;91.20;;;;;;2085865;28;20494;-81
2021/01/24 01:01:20;;;;;;;13.15;8.82;;;3.20;91.20;;;;;;2079211;28;20410;-81
2021/01/24 01:02:21;;;;;;;12.32;9.18;;;3.20;91.20;;;;;;2080163;28;20033;-80
2021/01/24 01:03:21;;;;;;;13.18;8.90;;;3.20;91.30;;;;;;2085986;28;20116;-82
2021/01/24 01:04:22;;;;;;;11.77;8.43;;;3.20;91.30;;;;;;2087166;28;20018;-81
2021/01/24 01:05:23;;;;;;;14.18;9.15;;;3.20;91.30;;;;;;2088216;28;20041;-81
2021/01/24 01:06:23;;;;;;;14.43;9.10;;;3.20;91.30;;;;;;2079975;28;20034;-81
2021/01/24 01:07:24;;;;;;;12.95;8.43;;;3.20;91.20;;;;;;2079702;28;20412;-81
2021/01/24 01:08:25;;;;;;;13.00;8.50;;;3.20;91.20;;;;;;2077445;28;20427;-81
2021/01/24 01:09:25;;;;;;;15.10;9.40;;;3.20;91.20;;;;;;2080227;28;20033;-81
2021/01/24 01:10:26;;;;;;;12.90;8.57;;;3.20;91.20;;;;;;2071690;28;20037;-81
2021/01/24 01:11:27;;;;;;;13.73;9.18;;;3.20;91.20;;;;;;2076218;28;20076;-82
2021/01/24 01:12:27;;;;;;;13.60;8.68;;;3.20;91.20;;;;;;2079555;28;20037;-81
2021/01/24 01:13:28;;;;;;;14.15;8.50;;;3.20;91.20;;;;;;2078811;28;20048;-81
2021/01/24 01:14:29;;;;;;;13.23;8.65;;;3.20;91.30;;;;;;2080880;28;20087;-81
2021/01/24 01:15:30;;;;;;;12.77;8.15;;;3.20;91.30;;;;;;2083409;28;20029;-81
2021/01/24 01:16:30;;;;;;;12.82;8.38;;;3.10;91.20;;;;;;2081793;28;20033;-81
2021/01/24 01:17:31;;;;;;;12.30;8.20;;;3.10;91.20;;;;;;2067103;28;20028;-81
2021/01/24 01:18:32;;;;;;;11.15;8.07;;;3.20;91.30;;;;;;2081819;28;20038;-81
2021/01/24 01:19:32;;;;;;;13.75;9.15;;;3.20;91.30;;;;;;2089725;28;20086;-81
2021/01/24 01:20:33;;;;;;;12.13;8.15;;;3.10;91.30;;;;;;2086752;28;20021;-81
2021/01/24 01:21:34;;;;;;;13.48;8.57;;;3.20;91.30;;;;;;2083463;28;20042;-81
2021/01/24 01:22:35;;;;;;;11.50;7.97;;;3.20;91.30;;;;;;2086352;28;20017;-81
2021/01/24 01:23:39;;;;;;;12.48;7.53;;;3.20;91.30;;;;;;2081535;28;20104;-81
2021/01/24 01:24:39;;;;;;;10.50;7.07;;;3.20;91.30;;;;;;2079248;28;20072;-81
2021/01/24 01:25:40;;;;;;;11.30;7.03;;;3.20;91.30;;;;;;2080273;28;20126;-81
2021/01/24 01:26:40;;;;;;;10.70;7.32;;;3.20;91.30;;;;;;2071925;28;20026;-81
2021/01/24 01:27:41;;;;;;;10.50;6.90;;;3.10;91.30;;;;;;2086065;28;20021;-81
2021/01/24 01:28:42;;;;;;;11.90;7.20;;;3.20;91.30;;;;;;2091122;28;20021;-81
2021/01/24 01:29:44;;;;;;;10.82;6.65;;;3.20;91.60;;;;;;2080794;28;20041;-81
2021/01/24 01:30:45;;;;;;;11.90;7.35;;;3.20;91.30;;;;;;2084770;28;20029;-81
2021/01/24 01:31:45;;;;;;;10.65;7.18;;;3.20;91.30;;;;;;2090615;28;20036;-81
2021/01/24 01:32:46;;;;;;;10.57;7.03;;;3.10;91.30;;;;;;2088164;28;20443;-81
2021/01/24 01:33:46;;;;;;;10.18;6.78;;;3.20;91.30;;;;;;2086746;28;20215;-81
2021/01/24 01:34:47;;;;;;;10.25;6.88;;;3.10;91.30;;;;;;2088738;28;20057;-81
2021/01/24 01:35:48;;;;;;;9.65;6.40;;;3.10;91.30;;;;;;2079356;28;20041;-81
2021/01/24 01:36:48;;;;;;;9.30;6.38;;;3.10;91.30;;;;;;2086442;28;20032;-81
2021/01/24 01:37:49;;;;;;;10.75;6.70;;;3.10;91.30;;;;;;2087700;28;20118;-81
2021/01/24 01:38:50;;;;;;;10.38;6.65;;;3.20;91.40;;;;;;2083932;28;20032;-81
2021/01/24 01:39:50;;;;;;;10.02;6.28;;;3.10;91.30;;;;;;2078287;28;20033;-81
2021/01/24 01:40:51;;;;;;;9.60;6.78;;;3.10;91.30;;;;;;2091854;28;20040;-81
2021/01/24 01:41:52;;;;;;;11.02;6.15;;;3.20;91.40;;;;;;2098697;28;20024;-81
2021/01/24 01:42:53;;;;;;;9.85;6.43;;;3.10;91.30;;;;;;2081278;28;20095;-81
2021/01/24 01:43:53;;;;;;;9.35;5.95;;;3.10;91.30;;;;;;2081131;28;20061;-81
2021/01/24 01:44:54;;;;;;;10.52;6.22;;;3.10;91.30;;;;;;2085902;28;20083;-81
2021/01/24 01:45:54;;;;;;;9.57;5.63;;;3.10;91.30;;;;;;2095760;28;20029;-81
2021/01/24 01:46:56;;;;;;;9.55;6.05;;;3.10;91.40;;;;;;2086892;28;20032;-81
2021/01/24 01:47:57;;;;;;;9.90;5.90;;;3.10;91.40;;;;;;2093757;28;20040;-81
2021/01/24 01:48:58;;;;;;;10.07;6.07;;;3.10;91.40;;;;;;2081737;28;20049;-81
2021/01/24 01:49:59;;;;;;;10.88;6.30;;;3.10;91.40;;;;;;2079365;28;20427;-81
2021/01/24 01:51:00;;;;;;;9.60;6.13;;;3.10;91.40;;;;;;2093124;28;20024;-81
2021/01/24 01:52:01;;;;;;;10.23;6.03;;;3.10;91.40;;;;;;2081682;28;20108;-81
2021/01/24 01:53:02;;;;;;;10.00;6.20;;;3.10;91.40;;;;;;2090436;28;20115;-82
2021/01/24 01:54:02;;;;;;;11.68;6.30;;;3.10;91.60;;;;;;2091339;28;20052;-81
2021/01/24 01:55:03;;;;;;;10.60;6.30;;;3.10;91.40;;;;;;2093499;28;20124;-81
2021/01/24 01:56:04;;;;;;;10.32;6.38;;;3.10;91.40;;;;;;2079509;28;20042;-82
2021/01/24 01:57:05;;;;;;;9.35;5.70;;;3.10;91.50;;;;;;2072639;28;20137;-82
2021/01/24 01:58:06;;;;;;;9.00;5.90;;;3.10;91.40;;;;;;2088770;28;20484;-82
2021/01/24 01:59:06;;;;;;;11.77;6.28;;;3.10;91.40;;;;;;2096064;28;20040;-81
2021/01/24 02:00:08;;;;;;;11.07;6.50;;;3.00;91.30;;;;;;2081289;28;20025;-81
2021/01/24 02:01:48;;;;;;;9.43;5.53;;;3.00;91.40;;;;;;2078417;28;20128;-81
2021/01/24 02:02:58;;;;;;;8.68;5.28;;;3.00;91.40;;;;;;2086736;28;20591;-81
2021/01/24 02:04:22;;;;;;;8.10;5.03;;;3.00;91.40;;;;;;2081739;28;20037;-82
2021/01/24 02:05:51;;;;;;;9.25;5.45;;;3.00;91.40;;;;;;2087622;28;20112;-82
2021/01/24 02:07:02;;;;;;;8.65;5.38;;;3.00;91.40;;;;;;2082388;28;20029;-81
2021/01/24 02:08:06;;;;;;;10.18;6.05;;;3.00;91.40;;;;;;2087092;28;20490;-82
2021/01/24 02:09:29;;;;;;;9.75;5.70;;;3.10;91.30;;;;;;2087576;28;20115;-82
2021/01/24 02:11:11;;;;;;;9.00;5.45;;;3.00;91.30;;;;;;2081646;28;20475;-81
2021/01/24 02:12:29;;;;;;;8.88;5.25;;;3.00;91.30;;;;;;2089744;28;20016;-82
2021/01/24 02:13:38;;;;;;;9.40;5.20;;;3.00;91.30;;;;;;2088252;28;20037;-81
2021/01/24 02:14:41;;;;;;;7.93;4.93;;;3.00;91.30;;;;;;2083020;28;20384;-81
2021/01/24 02:15:44;;;;;;;8.60;5.18;;;3.00;91.30;;;;;;2086601;28;20033;-82
2021/01/24 02:16:46;;;;;;;9.00;5.32;;;3.00;91.30;;;;;;2089569;28;20025;-81
2021/01/24 02:17:54;;;;;;;8.35;5.13;;;3.00;91.30;;;;;;2087615;28;20021;-82
2021/01/24 02:18:56;;;;;;;7.90;5.15;;;3.00;91.30;;;;;;2092648;28;20033;-81
2021/01/24 02:20:19;;;;;;;9.00;4.90;;;2.90;91.30;;;;;;2092887;28;20028;-82
2021/01/24 02:21:35;;;;;;;8.15;4.28;;;3.00;91.40;;;;;;2088425;28;20025;-81
2021/01/24 02:22:39;;;;;;;8.88;5.00;;;3.00;91.40;;;;;;2081692;28;20137;-81
2021/01/24 02:23:42;;;;;;;10.27;4.95;;;2.90;91.30;;;;;;2086288;28;20061;-81
2021/01/24 02:24:51;;;;;;;8.07;4.70;;;2.90;91.40;;;;;;2084858;28;20033;-82
2021/01/24 02:26:15;;;;;;;7.68;4.15;;;2.90;91.40;;;;;;2094701;28;20017;-81
2021/01/24 02:27:41;;;;;;;8.07;4.78;;;2.90;91.40;;;;;;2088846;28;20089;-81
2021/01/24 02:29:14;;;;;;;8.95;4.55;;;2.90;91.60;;;;;;2088978;28;20041;-81
2021/01/24 02:30:18;;;;;;;7.95;4.15;;;2.90;91.30;;;;;;2088002;28;20515;-80
2021/01/24 02:31:20;;;;;;;6.70;3.80;;;2.90;91.30;;;;;;2080407;28;20060;-82
2021/01/24 02:32:23;;;;;;;7.50;4.07;;;2.80;91.30;;;;;;2080434;28;20037;-81
2021/01/24 02:33:26;;;;;;;6.35;4.00;;;2.90;91.40;;;;;;2098167;28;20107;-82
2021/01/24 02:34:31;;;;;;;7.95;4.43;;;2.80;91.40;;;;;;2099271;28;20024;-81
2021/01/24 02:35:40;;;;;;;6.75;3.67;;;2.80;91.40;;;;;;2086927;28;20029;-81
2021/01/24 02:36:41;;;;;;;7.35;4.32;;;2.90;91.50;;;;;;2089618;28;20026;-81
2021/01/24 02:37:43;;;;;;;6.32;3.78;;;2.80;91.40;;;;;;2088293;28;20041;-81
2021/01/24 02:38:45;;;;;;;6.03;3.67;;;2.80;91.40;;;;;;2099756;28;20066;-80
2021/01/24 02:39:47;;;;;;;7.38;3.97;;;2.80;91.50;;;;;;2098961;28;20465;-81
2021/01/24 02:40:48;;;;;;;6.88;4.07;;;2.80;91.50;;;;;;2091660;28;20104;-81
2021/01/24 02:41:49;;;;;;;6.30;3.40;;;2.80;91.50;;;;;;2082649;28;20123;-81
2021/01/24 02:42:51;;;;;;;6.18;3.65;;;2.90;91.50;;;;;;2089525;28;20032;-81
2021/01/24 02:43:52;;;;;;;6.38;4.07;;;2.90;91.50;;;;;;2082866;28;20704;-81
2021/01/24 02:44:53;;;;;;;7.15;3.40;;;2.90;91.50;;;;;;2075705;28;20037;-81
2021/01/24 02:45:56;;;;;;;7.88;4.18;;;2.90;91.50;;;;;;2078260;28;20446;-80
2021/01/24 02:46:58;;;;;;;7.75;3.95;;;2.90;91.50;;;;;;2077592;28;20036;-81
2021/01/24 02:48:00;;;;;;;6.18;3.65;;;2.90;91.50;;;;;;2088276;28;20036;-81
2021/01/24 02:49:01;;;;;;;6.32;3.47;;;2.90;91.50;;;;;;2080561;28;20089;-81
2021/01/24 02:50:03;;;;;;;5.93;3.88;;;2.90;91.50;;;;;;2076982;28;20108;-81
2021/01/24 02:51:05;;;;;;;7.78;4.20;;;2.80;91.50;;;;;;2091178;28;20104;-81
2021/01/24 02:52:06;;;;;;;6.10;3.58;;;2.80;91.50;;;;;;2096138;28;20042;-81
2021/01/24 02:53:08;;;;;;;6.57;3.72;;;2.90;91.60;;;;;;2072780;28;20057;-81
2021/01/24 02:54:10;;;;;;;7.70;4.03;;;2.90;91.80;;;;;;2081554;28;20036;-81
2021/01/24 02:55:13;;;;;;;6.55;3.55;;;2.90;91.60;;;;;;2087939;28;20033;-81
2021/01/24 02:56:16;;;;;;;5.97;3.63;;;2.90;91.60;;;;;;2088976;28;20033;-81
2021/01/24 02:57:17;;;;;;;6.20;3.70;;;2.90;91.60;;;;;;2096691;28;20056;-81
2021/01/24 02:58:18;;;;;;;5.82;3.75;;;2.90;91.60;;;;;;2088006;28;20054;-82
2021/01/24 02:59:19;;;;;;;7.25;3.80;;;2.90;91.60;;;;;;2072756;28;20038;-81
2021/01/24 03:00:21;;;;;;;6.88;4.10;;;2.90;91.60;;;;;;2087521;28;20068;-81
2021/01/24 03:01:21;;;;;;;6.68;3.80;;;2.90;91.60;;;;;;2087219;28;20045;-81
2021/01/24 03:02:22;;;;;;;6.53;4.07;;;2.90;91.60;;;;;;2071965;28;20113;-80
2021/01/24 03:03:23;;;;;;;6.97;4.03;;;2.90;91.60;;;;;;2080659;28;20025;-81
2021/01/24 03:04:24;;;;;;;6.18;3.78;;;2.90;91.90;;;;;;2088126;28;20021;-81
2021/01/24 03:05:25;;;;;;;6.57;3.70;;;2.90;91.60;;;;;;2079572;28;20112;-82
2021/01/24 03:06:25;;;;;;;7.47;3.80;;;2.90;91.60;;;;;;2075929;28;20018;-81
2021/01/24 03:07:28;;;;;;;6.43;3.33;;;2.90;91.70;;;;;;2087530;28;20494;-82
2021/01/24 03:08:29;;;;;;;6.60;3.60;;;2.90;91.70;;;;;;2082754;28;20064;-81
2021/01/24 03:09:29;;;;;;;5.70;3.70;;;2.90;91.60;;;;;;2080461;28;20132;-81
2021/01/24 03:10:30;;;;;;;7.53;4.00;;;2.90;91.90;;;;;;2077095;28;20032;-81
2021/01/24 03:11:32;;;;;;;5.60;3.60;;;2.90;91.90;;;;;;2063460;28;20046;-81
2021/01/24 03:12:38;;;;;;;5.40;3.33;;;3.00;91.70;;;;;;2073402;28;20030;-81
2021/01/24 03:13:59;;;;;;;7.00;3.83;;;3.00;91.60;;;;;;2085429;28;20036;-81
2021/01/24 03:15:02;;;;;;;6.50;3.50;;;3.00;91.60;;;;;;2087919;28;20036;-82
2021/01/24 03:16:03;;;;;;;7.43;3.90;;;3.00;91.60;;;;;;2092938;28;20029;-80
2021/01/24 03:17:05;;;;;;;6.60;3.90;;;3.00;91.60;;;;;;2087973;28;20029;-81
2021/01/24 03:18:08;;;;;;;6.93;3.40;;;3.00;91.60;;;;;;2088584;28;20110;-82
2021/01/24 03:19:13;;;;;;;7.72;3.70;;;3.00;91.60;;;;;;2087586;28;20087;-82
2021/01/24 03:20:15;;;;;;;5.53;3.47;;;3.00;91.60;;;;;;2081156;28;20030;-81
2021/01/24 03:21:17;;;;;;;6.50;3.53;;;3.00;91.70;;;;;;2085562;28;20239;-82
2021/01/24 03:22:19;;;;;;;7.68;3.60;;;3.10;91.90;;;;;;2090958;28;20043;-82
2021/01/24 03:23:21;;;;;;;6.03;3.67;;;3.00;91.60;;;;;;2088834;28;20040;-82
2021/01/24 03:24:24;;;;;;;5.60;3.50;;;3.00;91.70;;;;;;2087323;28;20028;-81
2021/01/24 03:25:25;;;;;;;6.32;3.50;;;3.00;91.70;;;;;;2084310;28;20039;-81
2021/01/24 03:26:26;;;;;;;6.53;3.83;;;3.10;91.70;;;;;;2091792;28;20095;-82
2021/01/24 03:27:27;;;;;;;7.43;3.80;;;3.10;91.70;;;;;;2090143;28;20112;-81
2021/01/24 03:28:28;;;;;;;7.15;4.10;;;3.10;91.70;;;;;;2097159;28;20147;-81
2021/01/24 03:29:30;;;;;;;7.18;4.32;;;3.10;91.70;;;;;;2095760;28;20593;-81
2021/01/24 03:30:30;;;;;;;6.40;4.22;;;3.10;91.70;;;;;;2079128;28;20048;-81
2021/01/24 03:31:32;;;;;;;7.63;4.13;;;3.10;91.70;;;;;;2084967;28;20036;-81
2021/01/24 03:32:33;;;;;;;6.63;3.80;;;3.10;91.70;;;;;;2089052;28;20028;-81
2021/01/24 03:33:37;;;;;;;9.10;4.25;;;3.10;91.70;;;;;;2071468;28;20057;-81
2021/01/24 03:34:38;;;;;;;7.22;4.50;;;3.10;91.70;;;;;;2081207;28;20025;-81
2021/01/24 03:35:39;;;;;;;6.93;4.25;;;3.10;91.70;;;;;;2094996;28;20475;-81
2021/01/24 03:36:39;;;;;;;5.85;3.80;;;3.10;91.70;;;;;;2082693;28;20025;-81
2021/01/24 03:37:40;;;;;;;7.07;4.40;;;3.10;91.70;;;;;;2084828;28;20040;-81
2021/01/24 03:38:40;;;;;;;7.15;4.50;;;3.10;91.70;;;;;;2073293;28;20033;-81
2021/01/24 03:39:41;;;;;;;6.97;4.18;;;3.10;91.70;;;;;;2081006;28;20029;-81
2021/01/24 03:40:42;;;;;;;7.35;4.63;;;3.10;91.70;;;;;;2089766;28;20032;-81
2021/01/24 03:41:43;;;;;;;7.13;4.68;;;3.20;91.80;;;;;;2079642;28;20040;-81
2021/01/24 03:42:44;;;;;;;8.57;4.50;;;3.10;91.70;;;;;;2087007;28;20021;-81
2021/01/24 03:43:45;;;;;;;8.48;4.82;;;3.10;91.80;;;;;;2087318;28;20044;-81
2021/01/24 03:44:46;;;;;;;8.50;5.03;;;3.10;91.70;;;;;;2090234;28;20586;-81
2021/01/24 03:45:47;;;;;;;8.82;5.30;;;3.10;91.80;;;;;;2093756;28;20082;-81
2021/01/24 03:46:47;;;;;;;9.18;5.20;;;3.10;91.80;;;;;;2079656;28;20044;-82
2021/01/24 03:47:48;;;;;;;9.25;5.30;;;3.10;91.80;;;;;;2080173;28;20060;-81
2021/01/24 03:48:48;;;;;;;8.60;5.50;;;3.10;91.80;;;;;;2062943;28;20169;-81
2021/01/24 03:49:49;;;;;;;8.00;5.25;;;3.10;91.80;;;;;;2069749;28;20042;-81
2021/01/24 03:50:50;;;;;;;7.97;4.88;;;3.10;91.80;;;;;;2085526;28;20111;-82
2021/01/24 03:51:50;;;;;;;9.57;5.60;;;3.10;91.80;;;;;;2088178;28;20029;-82
2021/01/24 03:52:51;;;;;;;11.80;5.57;;;3.10;91.80;;;;;;2083428;28;20395;-82
2021/01/24 03:53:51;;;;;;;9.10;5.80;;;3.10;91.80;;;;;;2089160;28;20029;-81
2021/01/24 03:54:52;;;;;;;12.02;6.20;;;3.10;91.80;;;;;;2080516;28;20064;-81
2021/01/24 03:55:53;;;;;;;9.10;5.70;;;3.10;91.80;;;;;;2093870;28;20497;-82
2021/01/24 03:56:54;;;;;;;10.88;5.78;;;3.10;91.80;;;;;;2087433;28;20059;-81
2021/01/24 03:57:54;;;;;;;9.20;5.82;;;3.10;91.80;;;;;;2074760;28;20560;-81
2021/01/24 03:58:55;;;;;;;9.88;5.95;;;3.10;91.80;;;;;;2080460;28;20037;-82
2021/01/24 03:59:55;;;;;;;11.20;6.00;;;3.10;91.80;;;;;;2084974;28;20017;-81
2021/01/24 04:00:56;;;;;;;9.20;5.82;;;3.10;91.80;;;;;;2055225;28;20027;-82
2021/01/24 04:01:57;;;;;;;8.65;5.50;;;3.10;91.80;;;;;;2080524;28;20029;-81
2021/01/24 04:02:57;;;;;;;9.05;5.70;;;3.10;91.80;;;;;;2098793;28;20543;-82
2021/01/24 04:03:58;;;;;;;9.63;5.53;;;3.10;91.80;;;;;;2086644;28;20036;-81
2021/01/24 04:04:59;;;;;;;9.23;5.93;;;3.10;91.80;;;;;;2070061;28;20054;-81
2021/01/24 04:05:59;;;;;;;8.35;5.43;;;3.10;91.80;;;;;;2072203;28;20113;-81
2021/01/24 04:07:00;;;;;;;8.23;5.35;;;3.10;91.90;;;;;;2094764;28;20468;-81
2021/01/24 04:08:00;;;;;;;10.82;5.90;;;3.10;92.00;;;;;;2082780;28;20028;-82
2021/01/24 04:09:01;;;;;;;10.25;6.45;;;3.10;91.90;;;;;;2078026;28;20561;-81
2021/01/24 04:10:04;;;;;;;9.35;5.63;;;3.10;91.90;;;;;;2079881;28;20455;-81
2021/01/24 04:11:04;;;;;;;9.68;5.68;;;3.10;91.90;;;;;;2084924;28;20026;-81
2021/01/24 04:12:05;;;;;;;8.70;5.55;;;3.10;91.90;;;;;;2082215;28;20026;-81
2021/01/24 04:13:06;;;;;;;10.07;5.93;;;3.10;91.90;;;;;;2093555;28;20523;-82
2021/01/24 04:14:08;;;;;;;10.13;5.75;;;3.10;91.90;;;;;;2085480;28;20041;-80
2021/01/24 04:15:09;;;;;;;10.75;5.90;;;3.10;91.90;;;;;;2078974;28;20022;-82
2021/01/24 04:16:10;;;;;;;9.85;6.05;;;3.10;91.90;;;;;;2080730;28;20045;-81
2021/01/24 04:17:11;;;;;;;9.82;6.10;;;3.10;91.90;;;;;;2081635;28;20613;-82
2021/01/24 04:18:12;;;;;;;10.18;6.03;;;3.10;91.90;;;;;;2085983;28;20033;-82
2021/01/24 04:19:12;;;;;;;8.98;5.85;;;3.10;91.90;;;;;;2087901;28;20117;-81
2021/01/24 04:20:13;;;;;;;9.57;6.05;;;3.10;91.90;;;;;;2081766;28;20079;-81
2021/01/24 04:21:14;;;;;;;11.07;6.63;;;3.10;91.90;;;;;;2085490;28;20132;-80
2021/01/24 04:22:14;;;;;;;11.00;6.68;;;3.10;91.90;;;;;;2080652;28;20037;-81
2021/01/24 04:23:15;;;;;;;9.85;6.30;;;3.10;91.80;;;;;;2094871;28;20401;-81
2021/01/24 04:24:16;;;;;;;9.23;6.03;;;3.10;91.90;;;;;;2092919;28;20390;-82
2021/01/24 04:25:18;;;;;;;11.60;6.78;;;3.00;91.80;;;;;;2085379;28;20088;-81
2021/01/24 04:26:18;;;;;;;9.35;5.88;;;3.10;91.90;;;;;;2071981;28;20480;-82
2021/01/24 04:27:19;;;;;;;10.52;6.15;;;3.00;91.90;;;;;;2062911;28;20081;-81
2021/01/24 04:28:20;;;;;;;9.38;5.82;;;3.00;91.90;;;;;;2080418;28;20124;-81
2021/01/24 04:29:21;;;;;;;10.02;6.25;;;3.00;91.90;;;;;;2101977;28;20032;-82
2021/01/24 04:30:22;;;;;;;9.27;6.03;;;3.00;91.90;;;;;;2101938;28;20024;-82
2021/01/24 04:31:23;;;;;;;10.55;5.85;;;3.00;91.90;;;;;;2088257;28;20025;-81
2021/01/24 04:32:23;;;;;;;9.02;5.55;;;3.00;91.90;;;;;;2082134;28;20033;-81
2021/01/24 04:33:24;;;;;;;9.38;6.20;;;3.00;91.90;;;;;;2088130;28;20540;-81
2021/01/24 04:34:24;;;;;;;9.07;6.07;;;3.00;91.90;;;;;;2074731;28;20034;-81
2021/01/24 04:35:25;;;;;;;10.27;5.97;;;3.00;91.90;;;;;;2086372;28;20037;-81
2021/01/24 04:36:26;;;;;;;10.73;5.93;;;3.00;91.90;;;;;;2080672;28;20036;-81
2021/01/24 04:37:27;;;;;;;9.32;5.88;;;3.00;91.90;;;;;;2088900;28;20502;-81
2021/01/24 04:38:28;;;;;;;9.65;5.57;;;3.00;91.90;;;;;;2082918;28;20121;-81
2021/01/24 04:39:28;;;;;;;9.23;6.03;;;3.00;91.90;;;;;;2072930;28;20026;-81
2021/01/24 04:40:29;;;;;;;10.35;6.05;;;3.00;91.90;;;;;;2063693;28;20026;-81
2021/01/24 04:41:31;;;;;;;10.73;5.47;;;3.00;91.90;;;;;;2081457;28;20036;-81
2021/01/24 04:42:32;;;;;;;9.98;6.00;;;3.00;91.90;;;;;;2088387;28;20131;-81
2021/01/24 04:43:33;;;;;;;9.30;6.05;;;3.00;92.10;;;;;;2079902;28;20029;-81
2021/01/24 04:44:35;;;;;;;9.88;5.70;;;3.00;92.00;;;;;;2096424;28;20462;-81
2021/01/24 04:45:36;;;;;;;10.82;6.25;;;3.00;92.00;;;;;;2091318;28;20052;-81
2021/01/24 04:46:37;;;;;;;9.88;6.20;;;3.00;92.00;;;;;;2081523;28;20415;-81
2021/01/24 04:47:40;;;;;;;10.40;6.07;;;3.00;91.90;;;;;;2090354;28;20053;-80
2021/01/24 04:48:41;;;;;;;9.35;5.80;;;3.00;91.90;;;;;;2088219;28;20090;-81
2021/01/24 04:49:42;;;;;;;11.55;6.40;;;3.00;91.90;;;;;;2075676;28;20517;-82
2021/01/24 04:50:43;;;;;;;9.88;6.25;;;3.00;91.90;;;;;;2103332;28;20402;-81
2021/01/24 04:51:44;;;;;;;9.63;5.72;;;3.00;92.00;;;;;;2091573;28;20506;-81
2021/01/24 04:52:45;;;;;;;9.93;6.00;;;3.00;92.00;;;;;;2081517;28;20040;-82
2021/01/24 04:53:46;;;;;;;9.40;5.72;;;3.00;92.00;;;;;;2081767;28;20039;-81
2021/01/24 04:54:49;;;;;;;9.88;6.10;;;3.00;92.00;;;;;;2093158;28;20056;-82
2021/01/24 04:55:50;;;;;;;14.15;6.93;;;2.90;91.90;;;;;;2096962;28;20025;-81
2021/01/24 04:56:50;;;;;;;10.00;6.10;;;3.00;91.90;;;;;;2088505;28;20024;-82
2021/01/24 04:57:56;;;;;;;12.65;7.47;;;3.00;91.90;;;;;;2081711;28;20031;-81
2021/01/24 04:58:59;;;;;;;12.23;7.00;;;3.00;92.00;;;;;;2080140;28;20025;-82
2021/01/24 04:59:59;;;;;;;10.32;6.45;;;3.00;91.90;;;;;;2081921;28;20021;-81
2021/01/24 05:01:01;;;;;;;9.95;6.50;;;2.90;91.90;;;;;;2078857;28;20480;-82
2021/01/24 05:02:02;;;;;;;10.13;6.00;;;2.90;92.00;;;;;;2086371;28;20488;-82
2021/01/24 05:03:04;;;;;;;10.15;6.18;;;2.90;92.00;;;;;;2091801;28;20046;-82
2021/01/24 05:04:04;;;;;;;11.70;6.22;;;3.00;92.00;;;;;;2085106;28;20537;-81
2021/01/24 05:05:05;;;;;;;9.88;6.03;;;3.00;92.00;;;;;;2086252;28;20036;-81
2021/01/24 05:06:06;;;;;;;10.70;6.60;;;2.90;92.00;;;;;;2103511;28;20039;-82
2021/01/24 05:07:07;;;;;;;9.60;5.80;;;2.90;92.00;;;;;;2093558;28;20021;-81
2021/01/24 05:08:09;;;;;;;10.15;6.32;;;3.00;92.00;;;;;;2077111;28;20034;-82
2021/01/24 05:09:10;;;;;;;10.52;6.22;;;2.90;92.00;;;;;;2082112;28;20025;-81
2021/01/24 05:10:14;;;;;;;10.63;6.30;;;2.90;92.00;;;;;;2083642;28;20029;-81
2021/01/24 05:11:15;;;;;;;10.15;5.88;;;3.00;92.00;;;;;;2087412;28;20036;-82
2021/01/24 05:12:18;;;;;;;10.57;5.95;;;3.00;92.00;;;;;;2085326;28;20051;-82
2021/01/24 05:13:25;;;;;;;10.80;5.50;;;3.00;92.00;;;;;;2092104;28;20029;-81
2021/01/24 05:14:26;;;;;;;11.05;5.95;;;3.00;92.00;;;;;;2088929;28;20029;-81
2021/01/24 05:15:27;;;;;;;9.95;6.00;;;3.00;92.00;;;;;;2087608;28;20043;-81
2021/01/24 05:16:28;;;;;;;9.90;6.00;;;2.90;92.00;;;;;;2098581;28;20060;-81
2021/01/24 05:17:29;;;;;;;10.38;5.40;;;3.00;92.00;;;;;;2090685;28;20049;-82
2021/01/24 05:18:30;;;;;;;11.02;6.15;;;3.00;92.00;;;;;;2081817;28;20044;-82
2021/01/24 05:19:33;;;;;;;9.75;5.70;;;2.90;92.00;;;;;;2087677;28;20052;-81
2021/01/24 05:20:34;;;;;;;10.57;6.15;;;2.90;92.00;;;;;;2082484;28;20022;-82
2021/01/24 05:21:36;;;;;;;9.65;5.80;;;3.00;92.00;;;;;;2096353;28;20482;-81
2021/01/24 05:22:40;;;;;;;9.15;5.60;;;3.00;92.00;;;;;;2082120;28;20029;-81
2021/01/24 05:23:43;;;;;;;10.57;6.10;;;2.90;92.00;;;;;;2072335;28;20554;-81
2021/01/24 05:24:44;;;;;;;10.00;5.68;;;3.00;92.00;;;;;;2070545;28;20022;-80
2021/01/24 05:25:44;;;;;;;10.63;6.15;;;3.00;92.00;;;;;;2075043;28;20053;-81